Terminal Aerodrome Forecast
Issued by NWS

Home | Current Version | Previous Version | Text Only | Print | Product List | Glossary On
Versions: 1 2 3 4 5 6 7 8 9 10 11 12 13 14 15
000
FTUS44 KLUB 231930 AAA
TAFCDS
TAF AMD
KCDS 231930Z 2320/2418 17015KT P6SM VCSH SCT040
     FM240100 14014KT P6SM SCT060 SCT250
     FM241300 16015KT P6SM SCT025 BKN100=

USA.gov is the U.S. government's official web portal to all federal, state and local government web resources and services.